createdAt,value
2019-04-22T00:00:12.733Z,99.71
2019-04-22T00:01:17.180Z,99.12
2019-04-22T00:02:13.512Z,98.93
2019-04-22T00:03:15.237Z,99.12
2019-04-22T00:04:17.930Z,97.75
2019-04-22T00:05:26.258Z,97.95
2019-04-22T00:06:38.178Z,98.24
2019-04-22T00:07:36.222Z,97.85
2019-04-22T00:08:40.617Z,97.17
2019-04-22T00:09:38.743Z,98.05
2019-04-22T00:10:39.728Z,97.07
2019-04-22T00:11:38.370Z,97.17
2019-04-22T00:12:43.937Z,97.75
2019-04-22T00:13:40.238Z,96.78
2019-04-22T00:14:38.690Z,97.07
2019-04-22T00:15:33.975Z,96.78
2019-04-22T00:16:47.501Z,97.41
2019-04-22T00:18:56.367Z,97.31
2019-04-22T00:19:45.641Z,97.41
2019-04-22T00:20:35.480Z,97.90
2019-04-22T00:21:40.076Z,97.90
2019-04-22T00:22:42.710Z,97.90
2019-04-22T00:23:39.499Z,98.29
2019-04-22T00:24:40.262Z,97.90
2019-04-22T00:25:45.919Z,98.10
2019-04-22T00:27:41.245Z,97.41
2019-04-22T00:28:46.413Z,97.12
2019-04-22T00:30:37.396Z,97.12
2019-04-22T00:31:40.599Z,97.07
2019-04-22T00:32:39.779Z,96.63
2019-04-22T00:33:39.288Z,97.41
2019-04-22T00:34:37.169Z,96.34
2019-04-22T00:35:36.630Z,96.53
2019-04-22T00:36:36.526Z,96.29
2019-04-22T00:37:35.771Z,96.04
2019-04-22T00:38:38.294Z,96.83
2019-04-22T00:39:42.378Z,96.58
2019-04-22T00:40:39.272Z,96.83
2019-04-22T00:41:35.807Z,96.48
2019-04-22T00:42:41.333Z,96.19
2019-04-22T00:43:42.159Z,96.29
2019-04-22T00:44:41.618Z,96.19
2019-04-22T00:45:38.976Z,95.21
2019-04-22T00:46:38.034Z,95.31
2019-04-22T00:47:58.062Z,95.31
2019-04-22T00:48:42.066Z,95.41
2019-04-22T00:50:06.361Z,94.97
2019-04-22T00:50:37.213Z,95.21
2019-04-22T00:51:44.514Z,94.78
2019-04-22T00:52:42.196Z,94.82
2019-04-22T00:53:39.222Z,94.68
2019-04-22T00:54:48.953Z,93.90
2019-04-22T00:55:40.508Z,94.43
2019-04-22T00:56:35.680Z,93.85
2019-04-22T00:57:43.609Z,94.24
2019-04-22T00:58:41.274Z,94.53
2019-04-22T00:59:40.312Z,94.48
2019-04-22T01:00:37.660Z,94.29
2019-04-22T01:01:39.816Z,94.29
2019-04-22T01:02:41.631Z,93.99
2019-04-22T01:03:43.105Z,93.99
2019-04-22T01:04:39.086Z,94.58
2019-04-22T01:05:42.297Z,94.38
2019-04-22T01:06:38.670Z,94.87
2019-04-22T01:07:38.907Z,94.97
2019-04-22T01:08:51.292Z,94.38
2019-04-22T01:09:38.888Z,94.97
2019-04-22T01:10:40.543Z,94.68
2019-04-22T01:12:39.891Z,94.58
2019-04-22T01:13:38.448Z,94.87
2019-04-22T01:14:41.728Z,95.07
2019-04-22T01:15:40.574Z,95.56
2019-04-22T01:16:40.773Z,95.26
2019-04-22T01:17:40.450Z,95.65
2019-04-22T01:18:39.063Z,95.46
2019-04-22T01:19:47.168Z,95.61
2019-04-22T01:21:40.427Z,96.29
2019-04-22T01:22:34.906Z,96.29
2019-04-22T01:23:34.498Z,96.58
2019-04-22T01:24:32.344Z,96.88
2019-04-22T01:25:31.315Z,97.17
2019-04-22T01:26:31.307Z,97.56
2019-04-22T01:27:30.904Z,97.46
2019-04-22T01:28:27.285Z,96.48
2019-04-22T01:29:27.257Z,95.61
2019-04-22T01:30:24.159Z,94.92
2019-04-22T01:31:20.464Z,95.12
2019-04-22T01:32:22.692Z,96.83
2019-04-22T01:33:24.087Z,96.68
2019-04-22T01:34:32.220Z,96.19
2019-04-22T01:35:28.706Z,96.88
2019-04-22T01:36:35.313Z,96.78
2019-04-22T01:37:38.010Z,97.11
2019-04-22T01:38:41.934Z,96.14
2019-04-22T01:39:43.566Z,96.29
2019-04-22T01:40:49.528Z,96.58
2019-04-22T01:41:48.624Z,96.14
2019-04-22T01:42:39.411Z,95.16
2019-04-22T01:43:53.663Z,95.06
2019-04-22T01:44:38.417Z,95.06
2019-04-22T01:45:39.413Z,94.87
2019-04-22T01:46:44.774Z,95.16
2019-04-22T01:48:39.331Z,94.28
2019-04-22T01:49:39.853Z,94.09
2019-04-22T01:50:36.851Z,94.28
2019-04-22T01:51:56.518Z,94.57
2019-04-22T01:52:41.565Z,94.09
2019-04-22T01:53:43.415Z,93.79
2019-04-22T01:54:43.393Z,93.89
2019-04-22T01:55:46.940Z,94.28
2019-04-22T01:56:44.957Z,94.04
2019-04-22T01:57:35.036Z,94.18
2019-04-22T01:58:36.636Z,94.09
2019-04-22T01:59:31.762Z,94.48
2019-04-22T02:00:42.460Z,94.18
2019-04-22T02:01:47.699Z,94.57
2019-04-22T02:02:42.848Z,94.77
2019-04-22T02:03:46.693Z,94.57
2019-04-22T02:04:47.961Z,94.38
2019-04-22T02:05:39.401Z,93.99
2019-04-22T02:06:42.186Z,95.26
2019-04-22T02:07:42.114Z,93.89
2019-04-22T02:08:49.829Z,94.18
2019-04-22T02:09:42.683Z,94.48
2019-04-22T02:10:54.971Z,93.79
2019-04-22T02:11:46.646Z,93.60
2019-04-22T02:12:43.455Z,95.26
2019-04-22T02:13:46.317Z,94.18
2019-04-22T02:15:47.406Z,94.04
2019-04-22T02:16:46.353Z,93.74
2019-04-22T02:17:53.446Z,93.15
2019-04-22T02:18:44.240Z,94.33
2019-04-22T02:19:48.104Z,94.23
2019-04-22T02:20:43.313Z,94.23
2019-04-22T02:21:42.728Z,94.23
2019-04-22T02:23:05.965Z,94.82
2019-04-22T02:23:47.273Z,94.33
2019-04-22T02:24:46.845Z,95.40
2019-04-22T02:25:44.819Z,95.45
2019-04-22T02:26:42.038Z,96.48
2019-04-22T02:27:46.729Z,95.60
2019-04-22T02:29:43.930Z,94.87
2019-04-22T02:31:09.392Z,95.16
2019-04-22T02:32:10.630Z,95.31
2019-04-22T02:34:56.934Z,93.64
2019-04-22T02:36:54.776Z,93.94
2019-04-22T02:37:48.127Z,93.84
2019-04-22T02:39:52.797Z,92.47
2019-04-22T02:41:08.742Z,91.69
2019-04-22T02:41:49.921Z,91.93
2019-04-22T02:42:43.532Z,93.05
2019-04-22T02:44:46.738Z,92.81
2019-04-22T02:46:03.890Z,92.91
2019-04-22T02:47:07.882Z,93.15
2019-04-22T02:47:47.592Z,92.13
2019-04-22T02:49:47.042Z,92.42
2019-04-22T02:50:54.166Z,91.63
2019-04-22T02:51:36.653Z,91.63
2019-04-22T02:52:42.677Z,91.73
2019-04-22T02:54:49.046Z,91.88
2019-04-22T02:55:49.297Z,91.00
2019-04-22T02:56:43.837Z,91.78
2019-04-22T02:57:47.129Z,91.39
2019-04-22T02:59:50.243Z,91.19
2019-04-22T03:01:01.478Z,91.29
2019-04-22T03:01:51.499Z,90.65
2019-04-22T03:02:58.900Z,90.45
2019-04-22T03:04:06.792Z,90.36
2019-04-22T03:04:44.001Z,90.45
2019-04-22T03:05:58.252Z,90.45
2019-04-22T03:06:38.452Z,90.16
2019-04-22T03:07:50.748Z,89.76
2019-04-22T03:09:01.293Z,90.20
2019-04-22T03:09:50.854Z,89.96
2019-04-22T03:10:56.904Z,89.37
2019-04-22T03:11:59.309Z,90.36
2019-04-22T03:12:41.168Z,89.47
2019-04-22T03:15:52.889Z,90.36
2019-04-22T03:16:43.235Z,90.36
2019-04-22T03:17:47.353Z,90.55
2019-04-22T03:18:50.723Z,90.11
2019-04-22T03:20:54.827Z,89.71
2019-04-22T03:21:48.673Z,90.01
2019-04-22T03:22:47.603Z,89.91
2019-04-22T03:24:03.474Z,90.30
2019-04-22T03:24:40.577Z,89.86
2019-04-22T03:26:14.149Z,89.76
2019-04-22T03:26:49.013Z,88.87
2019-04-22T03:27:39.526Z,88.78
2019-04-22T03:28:51.492Z,88.78
2019-04-22T03:29:56.324Z,88.87
2019-04-22T03:30:55.947Z,88.09
2019-04-22T03:32:17.566Z,88.09
2019-04-22T03:34:17.823Z,87.30
2019-04-22T03:35:55.715Z,87.99
2019-04-22T03:37:56.359Z,87.60
2019-04-22T03:39:04.206Z,88.72
2019-04-22T03:40:55.284Z,87.84
2019-04-22T03:43:10.905Z,87.15
2019-04-22T03:44:08.242Z,86.86
2019-04-22T03:45:00.884Z,86.76
2019-04-22T03:45:42.139Z,86.96
2019-04-22T03:47:01.934Z,85.68
2019-04-22T03:47:52.929Z,85.97
2019-04-22T03:49:07.249Z,86.37
2019-04-22T03:49:56.377Z,84.70
2019-04-22T03:51:11.984Z,84.70
2019-04-22T03:52:03.012Z,85.68
2019-04-22T03:52:56.555Z,86.57
2019-04-22T03:53:56.494Z,87.05
2019-04-22T03:54:52.423Z,85.24
2019-04-22T03:55:58.773Z,85.82
2019-04-22T03:57:50.380Z,85.82
2019-04-22T04:00:11.010Z,85.63
2019-04-22T04:00:47.709Z,84.94
2019-04-22T04:01:53.389Z,84.25
2019-04-22T04:03:51.759Z,83.61
2019-04-22T04:04:43.406Z,83.02
2019-04-22T04:07:01.886Z,83.07
2019-04-22T04:07:57.693Z,84.06
2019-04-22T04:08:56.790Z,84.59
2019-04-22T04:09:49.884Z,83.02
2019-04-22T04:11:59.356Z,80.07
2019-04-22T04:13:57.934Z,81.74
2019-04-22T04:14:53.638Z,82.17
2019-04-22T04:15:42.684Z,81.88
2019-04-22T04:16:56.155Z,82.17
2019-04-22T04:17:51.493Z,82.07
2019-04-22T04:21:50.476Z,79.03
2019-04-22T04:26:10.716Z,79.17
2019-04-22T04:27:01.629Z,78.78
2019-04-22T04:28:10.725Z,78.38
2019-04-22T04:29:05.971Z,77.70
2019-04-22T04:30:51.313Z,77.89
2019-04-22T04:31:53.467Z,77.30
2019-04-22T04:32:55.164Z,77.80
2019-04-22T04:36:54.842Z,76.52
2019-04-22T04:37:52.333Z,76.72
2019-04-22T04:38:51.838Z,76.72
2019-04-22T04:40:05.754Z,77.70
2019-04-22T04:40:48.987Z,77.50
2019-04-22T04:42:07.463Z,77.04
2019-04-22T04:43:04.565Z,77.83
2019-04-22T04:44:06.174Z,78.13
2019-04-22T04:49:00.990Z,78.13
2019-04-22T04:49:54.563Z,77.24
2019-04-22T04:51:00.087Z,77.73
2019-04-22T04:52:06.691Z,77.77
2019-04-22T04:53:58.255Z,77.58
2019-04-22T04:55:03.897Z,78.27
2019-04-22T04:55:46.858Z,79.15
2019-04-22T04:58:13.910Z,79.54
2019-04-22T04:59:05.430Z,80.33
2019-04-22T05:00:32.341Z,80.72
2019-04-22T05:00:57.169Z,80.72
2019-04-22T05:04:05.049Z,80.04
2019-04-22T05:05:08.283Z,79.35
2019-04-22T05:05:47.678Z,79.38
2019-04-22T05:07:01.591Z,79.38
2019-04-22T05:09:57.235Z,77.71
2019-04-22T05:10:56.551Z,76.92
2019-04-22T05:13:01.768Z,76.73
2019-04-22T05:14:05.431Z,77.02
2019-04-22T05:14:52.709Z,77.02
2019-04-22T05:16:06.787Z,75.94
2019-04-22T05:17:07.002Z,75.94
2019-04-22T05:17:55.075Z,75.94
2019-04-22T05:18:52.906Z,75.25
2019-04-22T05:19:47.692Z,75.65
2019-04-22T05:21:06.871Z,75.45
2019-04-22T05:21:50.734Z,74.07
2019-04-22T05:22:59.453Z,72.79
2019-04-22T05:24:00.932Z,73.77
2019-04-22T05:25:06.098Z,73.88
2019-04-22T05:25:41.113Z,74.37
2019-04-22T05:26:52.384Z,73.88
2019-04-22T05:27:45.372Z,73.09
2019-04-22T05:28:43.342Z,74.30
2019-04-22T05:30:03.678Z,73.91
2019-04-22T05:30:40.657Z,73.12
2019-04-22T05:31:52.305Z,73.52
2019-04-22T05:33:47.739Z,71.35
2019-04-22T05:34:48.610Z,71.84
2019-04-22T05:35:46.520Z,72.53
2019-04-22T05:36:48.391Z,73.52
2019-04-22T05:37:50.326Z,72.92
2019-04-22T05:38:49.420Z,74.01
2019-04-22T05:39:45.172Z,74.90
2019-04-22T05:40:48.082Z,76.96
2019-04-22T05:41:48.679Z,76.67
2019-04-22T05:42:46.281Z,76.96
2019-04-22T05:43:50.178Z,76.86
2019-04-22T05:44:49.665Z,78.24
2019-04-22T05:45:43.331Z,76.57
2019-04-22T05:46:49.803Z,76.86
2019-04-22T05:47:46.186Z,76.86
2019-04-22T05:48:43.908Z,76.76
2019-04-22T05:49:45.950Z,77.36
2019-04-22T05:50:45.323Z,76.17
2019-04-22T05:51:51.241Z,75.48
2019-04-22T05:52:40.541Z,77.26
2019-04-22T05:53:48.168Z,76.37
2019-04-22T05:54:48.711Z,76.76
2019-04-22T05:55:47.907Z,77.06
2019-04-22T05:56:39.463Z,77.06
2019-04-22T05:57:47.180Z,76.96
2019-04-22T05:58:53.603Z,76.96
2019-04-22T05:59:46.257Z,77.16
2019-04-22T06:01:13.129Z,77.65
2019-04-22T06:01:55.127Z,78.47
2019-04-22T06:03:54.607Z,76.96
2019-04-22T06:04:51.817Z,77.00
2019-04-22T06:06:06.266Z,77.09
2019-04-22T06:06:43.067Z,77.39
2019-04-22T06:07:45.647Z,76.90
2019-04-22T06:08:46.957Z,77.49
2019-04-22T06:09:43.477Z,78.38
2019-04-22T06:10:52.730Z,78.28
2019-04-22T06:11:41.123Z,77.89
2019-04-22T06:12:41.720Z,78.47
2019-04-22T06:13:38.958Z,77.39
2019-04-22T06:14:47.641Z,77.69
2019-04-22T06:15:49.243Z,77.59
2019-04-22T06:16:51.478Z,78.87
2019-04-22T06:18:55.185Z,77.49
2019-04-22T06:19:44.150Z,77.29
2019-04-22T06:20:53.836Z,76.80
2019-04-22T06:21:41.806Z,77.98
2019-04-22T06:22:50.474Z,77.00
2019-04-22T06:23:46.346Z,76.51
2019-04-22T06:24:49.347Z,77.20
2019-04-22T06:25:59.048Z,77.00
2019-04-22T06:26:53.545Z,77.00
2019-04-22T06:27:52.372Z,77.89
2019-04-22T06:28:48.487Z,78.18
2019-04-22T06:29:41.369Z,77.69
2019-04-22T06:30:48.736Z,76.80
2019-04-22T06:32:47.220Z,77.78
2019-04-22T06:33:48.720Z,78.08
2019-04-22T06:34:48.282Z,76.31
2019-04-22T06:35:50.398Z,76.21
2019-04-22T06:36:51.054Z,77.09
2019-04-22T06:38:14.524Z,76.45
2019-04-22T06:38:59.005Z,76.90
2019-04-22T06:39:46.693Z,76.05
2019-04-22T06:40:46.558Z,74.83
2019-04-22T06:41:47.992Z,72.70
2019-04-22T06:42:56.536Z,74.28
2019-04-22T06:43:54.511Z,73.49
2019-04-22T06:44:53.965Z,73.00
2019-04-22T06:45:45.005Z,72.86
2019-04-22T06:46:47.528Z,72.56
2019-04-22T06:48:39.765Z,72.37
2019-04-22T06:49:52.557Z,72.47
2019-04-22T06:50:48.774Z,73.06
2019-04-22T06:51:45.120Z,72.08
2019-04-22T06:52:45.142Z,73.06
2019-04-22T06:53:47.840Z,72.37
2019-04-22T06:54:49.001Z,73.06
2019-04-22T06:56:04.895Z,72.77
2019-04-22T06:56:49.237Z,72.96
2019-04-22T06:57:45.301Z,73.06
2019-04-22T06:58:51.459Z,72.56
2019-04-22T06:59:46.825Z,72.37
2019-04-22T07:00:49.409Z,72.86
2019-04-22T07:01:49.985Z,73.46
2019-04-22T07:03:10.563Z,74.83
2019-04-22T07:03:53.932Z,74.04
2019-04-22T07:04:49.417Z,73.85
2019-04-22T07:05:47.478Z,73.25
2019-04-22T07:06:48.092Z,73.75
2019-04-22T07:07:52.121Z,75.03
2019-04-22T07:09:17.916Z,74.90
2019-04-22T07:09:48.599Z,74.15
2019-04-22T07:10:49.030Z,73.91
2019-04-22T07:11:43.357Z,74.01
2019-04-22T07:12:48.716Z,74.93
2019-04-22T07:13:49.111Z,74.60
2019-04-22T07:14:48.442Z,75.23
2019-04-22T07:17:49.248Z,74.15
2019-04-22T07:18:48.721Z,74.44
2019-04-22T07:19:45.181Z,74.24
2019-04-22T07:20:51.326Z,74.15
2019-04-22T07:21:46.747Z,74.73
2019-04-22T07:22:49.152Z,74.93
2019-04-22T07:23:54.047Z,75.42
2019-04-22T07:25:49.329Z,75.62
2019-04-22T07:26:45.099Z,76.31
2019-04-22T07:27:52.340Z,76.01
2019-04-22T07:28:46.600Z,76.17
2019-04-22T07:29:50.137Z,75.38
2019-04-22T07:30:44.697Z,75.23
2019-04-22T07:31:53.021Z,75.03
2019-04-22T07:33:09.468Z,75.23
2019-04-22T07:33:51.791Z,74.40
2019-04-22T07:35:54.909Z,75.59
2019-04-22T07:36:53.508Z,75.98
2019-04-22T07:38:04.663Z,75.38
2019-04-22T07:38:42.723Z,77.20
2019-04-22T07:39:45.587Z,76.31
2019-04-22T07:41:51.273Z,75.72
2019-04-22T07:42:54.099Z,75.92
2019-04-22T07:44:51.044Z,76.96
2019-04-22T07:45:49.249Z,77.16
2019-04-22T07:47:53.823Z,77.95
2019-04-22T07:49:06.570Z,77.84
2019-04-22T07:50:55.659Z,78.18
2019-04-22T07:52:05.083Z,77.00
2019-04-22T07:52:44.915Z,76.41
2019-04-22T07:53:49.915Z,76.21
2019-04-22T07:54:50.998Z,76.70
2019-04-22T07:55:47.055Z,77.09
2019-04-22T07:56:50.771Z,77.09
2019-04-22T07:57:51.969Z,75.13
2019-04-22T07:58:49.014Z,74.24
2019-04-22T07:59:49.335Z,74.93
2019-04-22T08:00:44.898Z,75.03
2019-04-22T08:02:01.993Z,76.01
2019-04-22T08:02:50.547Z,77.33
2019-04-22T08:04:17.538Z,77.20
2019-04-22T08:04:59.016Z,77.09
2019-04-22T08:05:58.858Z,77.09
2019-04-22T08:06:52.785Z,75.62
2019-04-22T08:07:56.803Z,76.80
2019-04-22T08:08:55.592Z,77.78
2019-04-22T08:10:08.398Z,78.18
2019-04-22T08:10:49.599Z,79.66
2019-04-22T08:11:52.465Z,79.82
2019-04-22T08:13:47.038Z,81.10
2019-04-22T08:14:49.982Z,81.84
2019-04-22T08:16:02.682Z,82.18
2019-04-22T08:16:51.971Z,83.06
2019-04-22T08:17:56.414Z,83.75
2019-04-22T08:18:47.508Z,83.30
2019-04-22T08:19:50.483Z,83.16
2019-04-22T08:20:47.162Z,82.77
2019-04-22T08:21:52.085Z,83.26
2019-04-22T08:22:55.287Z,83.06
2019-04-22T08:23:52.531Z,83.75
2019-04-22T08:24:47.197Z,84.05
2019-04-22T08:25:48.902Z,84.74
2019-04-22T08:27:05.928Z,84.74
2019-04-22T08:27:50.744Z,84.44
2019-04-22T08:28:56.132Z,85.62
2019-04-22T08:29:59.783Z,85.33
2019-04-22T08:31:59.500Z,86.41
2019-04-22T08:32:47.457Z,86.41
2019-04-22T08:33:49.653Z,86.41
2019-04-22T08:34:47.547Z,86.31
2019-04-22T08:37:12.359Z,86.61
2019-04-22T08:37:51.218Z,87.00
2019-04-22T08:38:53.973Z,87.45
2019-04-22T08:39:48.537Z,87.88
2019-04-22T08:40:56.027Z,87.98
2019-04-22T08:41:39.990Z,88.18
2019-04-22T08:43:57.604Z,88.57
2019-04-22T08:45:09.667Z,88.38
2019-04-22T08:45:54.585Z,88.73
2019-04-22T08:46:50.355Z,88.53
2019-04-22T08:47:48.208Z,88.24
2019-04-22T08:48:52.923Z,88.04
2019-04-22T08:49:56.368Z,88.14
2019-04-22T08:50:56.397Z,88.38
2019-04-22T08:51:49.437Z,87.19
2019-04-22T08:52:54.867Z,86.76
2019-04-22T08:53:56.205Z,86.86
2019-04-22T08:54:50.609Z,86.76
2019-04-22T08:55:57.807Z,86.27
2019-04-22T08:56:47.676Z,86.47
2019-04-22T08:58:13.375Z,85.48
2019-04-22T08:59:00.050Z,85.09
2019-04-22T08:59:48.641Z,85.38
2019-04-22T09:01:44.934Z,84.89
2019-04-22T09:02:56.755Z,83.91
2019-04-22T09:03:56.678Z,83.42
2019-04-22T09:04:48.062Z,83.12
2019-04-22T09:08:05.376Z,81.15
2019-04-22T09:08:55.155Z,80.56
2019-04-22T09:09:51.870Z,79.88
2019-04-22T09:10:53.465Z,80.86
2019-04-22T09:11:57.991Z,79.19
2019-04-22T09:12:57.779Z,79.38
2019-04-22T09:14:47.566Z,79.44
2019-04-22T09:15:48.758Z,79.97
2019-04-22T09:16:49.334Z,78.59
2019-04-22T09:17:58.678Z,78.00
2019-04-22T09:19:47.821Z,78.30
2019-04-22T09:21:04.332Z,77.81
2019-04-22T09:21:54.461Z,77.42
2019-04-22T09:23:00.946Z,78.14
2019-04-22T09:23:52.450Z,77.32
2019-04-22T09:24:47.040Z,76.07
2019-04-22T09:25:48.825Z,76.17
2019-04-22T09:26:54.293Z,75.48
2019-04-22T09:27:52.575Z,75.03
2019-04-22T09:28:52.322Z,76.01
2019-04-22T09:29:56.401Z,74.24
2019-04-22T09:30:56.929Z,73.75
2019-04-22T09:31:53.599Z,73.46
2019-04-22T09:32:54.172Z,74.24
2019-04-22T09:34:51.754Z,73.94
2019-04-22T09:35:52.393Z,75.52
2019-04-22T09:37:08.091Z,74.73
2019-04-22T09:38:00.242Z,75.98
2019-04-22T09:38:46.922Z,74.90
2019-04-22T09:40:53.952Z,75.98
2019-04-22T09:41:51.101Z,75.74
2019-04-22T09:42:50.493Z,75.74
2019-04-22T09:43:52.124Z,76.33
2019-04-22T09:45:15.183Z,76.04
2019-04-22T09:45:43.947Z,76.33
2019-04-22T09:46:52.271Z,76.23
2019-04-22T09:47:55.290Z,75.15
2019-04-22T09:48:55.372Z,76.04
2019-04-22T09:49:55.047Z,74.86
2019-04-22T09:50:47.708Z,75.65
2019-04-22T09:51:54.146Z,75.90
2019-04-22T09:52:53.160Z,76.00
2019-04-22T09:55:50.033Z,76.10
2019-04-22T09:56:50.710Z,76.89
2019-04-22T09:57:51.046Z,76.69
2019-04-22T09:58:53.502Z,76.50
2019-04-22T09:59:57.872Z,77.14
2019-04-22T10:00:52.541Z,78.19
2019-04-22T10:02:10.275Z,78.32
2019-04-22T10:02:55.425Z,77.99
2019-04-22T10:03:56.267Z,78.42
2019-04-22T10:04:55.178Z,77.93
2019-04-22T10:06:02.496Z,78.13
2019-04-22T10:06:53.132Z,78.13
2019-04-22T10:07:52.532Z,79.21
2019-04-22T10:10:00.227Z,76.85
2019-04-22T10:10:01.529Z,78.32
2019-04-22T10:11:00.882Z,77.93
2019-04-22T10:11:50.806Z,77.73
2019-04-22T10:12:46.581Z,78.32
2019-04-22T10:13:53.740Z,79.30
2019-04-22T10:14:52.662Z,77.83
2019-04-22T10:15:58.923Z,77.30
2019-04-22T10:16:51.114Z,78.28
2019-04-22T10:17:52.221Z,77.60
2019-04-22T10:18:53.027Z,78.09
2019-04-22T10:20:06.687Z,79.36
2019-04-22T10:20:54.208Z,78.38
2019-04-22T10:22:59.221Z,80.60
2019-04-22T10:23:50.702Z,80.15
2019-04-22T10:24:52.016Z,79.66
2019-04-22T10:25:52.588Z,80.35
2019-04-22T10:26:50.366Z,81.52
2019-04-22T10:27:56.835Z,81.59
2019-04-22T10:28:59.056Z,80.90
2019-04-22T10:30:52.092Z,81.68
2019-04-22T10:32:06.789Z,81.88
2019-04-22T10:32:47.603Z,82.04
2019-04-22T10:33:46.487Z,82.62
2019-04-22T10:34:36.044Z,81.94
2019-04-22T10:35:28.802Z,82.33
2019-04-22T10:36:27.818Z,82.67
2019-04-22T10:37:28.013Z,83.70
2019-04-22T10:38:28.249Z,84.39
2019-04-22T10:39:37.891Z,84.49
2019-04-22T10:40:27.985Z,84.39
2019-04-22T10:41:28.323Z,84.39
2019-04-22T10:42:27.147Z,84.55
2019-04-22T10:43:27.518Z,85.47
2019-04-22T10:44:27.146Z,85.24
2019-04-22T10:45:28.227Z,85.24
2019-04-22T10:46:28.228Z,85.03
2019-04-22T10:47:27.989Z,85.43
2019-04-22T10:48:28.198Z,85.82
2019-04-22T10:49:28.593Z,85.72
2019-04-22T10:50:28.231Z,85.88
2019-04-22T10:51:28.545Z,86.11
2019-04-22T10:52:27.682Z,85.92
2019-04-22T10:53:27.108Z,87.54
2019-04-22T10:54:27.435Z,87.45
2019-04-22T10:55:27.487Z,87.64
2019-04-22T10:56:27.336Z,87.94
2019-04-22T10:57:27.739Z,87.64
2019-04-22T10:58:28.612Z,88.23
2019-04-22T10:59:27.253Z,88.62
2019-04-22T11:00:27.399Z,88.23
2019-04-22T11:01:27.634Z,88.92
2019-04-22T11:02:27.665Z,88.92
2019-04-22T11:03:28.379Z,89.01
2019-04-22T11:04:28.067Z,89.11
2019-04-22T11:05:28.255Z,89.51
2019-04-22T11:06:27.597Z,89.61
2019-04-22T11:07:36.336Z,89.90
2019-04-22T11:08:37.557Z,90.68
2019-04-22T11:09:28.922Z,90.48
2019-04-22T11:10:44.556Z,90.48
2019-04-22T11:11:41.121Z,90.48
2019-04-22T11:12:34.128Z,90.88
2019-04-22T11:13:28.293Z,90.83
2019-04-22T11:14:28.687Z,90.44
2019-04-22T11:15:28.721Z,90.93
2019-04-22T11:16:27.924Z,91.72
2019-04-22T11:17:27.648Z,90.93
2019-04-22T11:18:27.675Z,91.97
2019-04-22T11:19:27.838Z,91.77
2019-04-22T11:20:27.712Z,91.86
2019-04-22T11:21:27.740Z,92.07
2019-04-22T11:22:32.237Z,91.86
2019-04-22T11:23:28.810Z,92.46
2019-04-22T11:24:28.512Z,92.55
2019-04-22T11:25:27.828Z,93.04
2019-04-22T11:26:28.258Z,93.43
2019-04-22T11:27:28.703Z,93.14
2019-04-22T11:28:28.251Z,92.85
2019-04-22T11:29:29.793Z,93.73
2019-04-22T11:30:28.330Z,93.14
2019-04-22T11:31:28.285Z,93.14
2019-04-22T11:32:28.614Z,93.14
2019-04-22T11:33:27.996Z,93.48
2019-04-22T11:34:29.083Z,93.24
2019-04-22T11:35:28.045Z,93.24
2019-04-22T11:36:30.612Z,93.63
2019-04-22T11:37:28.400Z,93.33
2019-04-22T11:38:28.865Z,93.24
2019-04-22T11:39:30.783Z,93.73
2019-04-22T11:40:34.920Z,94.32
2019-04-22T11:41:28.177Z,93.73
2019-04-22T11:42:28.220Z,93.92
2019-04-22T11:43:28.538Z,94.42
2019-04-22T11:44:30.617Z,94.32
2019-04-22T11:45:29.155Z,94.71
2019-04-22T11:46:29.557Z,94.51
2019-04-22T11:47:29.571Z,94.90
2019-04-22T11:48:29.209Z,94.71
2019-04-22T11:49:28.349Z,95.15
2019-04-22T11:50:28.371Z,95.45
2019-04-22T11:51:29.648Z,95.45
2019-04-22T11:52:28.803Z,95.64
2019-04-22T11:53:29.000Z,95.54
2019-04-22T11:54:28.658Z,96.72
2019-04-22T11:55:28.869Z,96.72
2019-04-22T11:56:29.393Z,96.62
2019-04-22T11:57:28.912Z,96.23
2019-04-22T11:58:28.900Z,96.81
2019-04-22T11:59:29.002Z,96.96
2019-04-22T12:00:28.594Z,96.81
2019-04-22T12:01:28.879Z,96.42
2019-04-22T12:02:29.176Z,96.52
2019-04-22T12:03:28.739Z,96.42
2019-04-22T12:04:29.984Z,96.62
2019-04-22T12:05:30.005Z,96.91
2019-04-22T12:06:28.721Z,97.20
2019-04-22T12:07:31.744Z,96.52
2019-04-22T12:08:29.104Z,96.91
2019-04-22T12:09:29.919Z,96.91
2019-04-22T12:10:35.695Z,97.06
2019-04-22T12:11:30.147Z,96.91
2019-04-22T12:12:29.917Z,97.60
2019-04-22T12:13:30.164Z,97.60
2019-04-22T12:14:30.053Z,98.04
2019-04-22T12:15:29.035Z,97.75
2019-04-22T12:16:29.662Z,98.09
2019-04-22T12:17:29.814Z,98.33
2019-04-22T12:18:29.160Z,98.38
2019-04-22T12:19:29.402Z,98.09
2019-04-22T12:20:29.448Z,97.75
2019-04-22T12:21:29.094Z,98.33
2019-04-22T12:22:29.303Z,98.82
2019-04-22T12:23:29.428Z,98.92
2019-04-22T12:24:30.261Z,99.31
2019-04-22T12:25:42.400Z,99.70
2019-04-22T12:26:30.482Z,99.51
2019-04-22T12:27:30.059Z,99.99
2019-04-22T12:28:29.204Z,99.70
2019-04-22T12:29:29.220Z,99.99
2019-04-22T12:30:29.797Z,99.90
2019-04-22T12:31:29.411Z,99.99
2019-04-22T12:32:29.713Z,99.99
2019-04-22T12:33:29.612Z,99.99
2019-04-22T12:34:29.438Z,99.99
2019-04-22T12:35:30.372Z,99.99
2019-04-22T12:36:30.595Z,99.99
2019-04-22T12:37:36.045Z,99.99
2019-04-22T12:38:29.541Z,99.99
2019-04-22T12:39:29.598Z,99.99
2019-04-22T12:40:39.482Z,99.99
2019-04-22T12:41:29.477Z,99.99
2019-04-22T12:42:29.498Z,99.99
2019-04-22T12:43:30.261Z,99.99
2019-04-22T12:44:30.506Z,99.99
2019-04-22T12:45:30.050Z,99.99
2019-04-22T12:46:30.135Z,99.99
2019-04-22T12:47:30.510Z,99.99
2019-04-22T12:48:30.871Z,99.99
2019-04-22T12:49:29.969Z,99.99
2019-04-22T12:50:33.719Z,99.99
2019-04-22T12:51:31.176Z,99.99
2019-04-22T12:52:36.953Z,99.99
2019-04-22T12:53:29.999Z,99.99
2019-04-22T12:54:31.126Z,99.99
2019-04-22T12:55:30.240Z,99.99
2019-04-22T12:56:29.980Z,99.99
2019-04-22T12:57:30.306Z,99.99
2019-04-22T12:58:29.957Z,99.99
2019-04-22T12:59:30.001Z,99.99
2019-04-22T13:00:30.246Z,99.99
2019-04-22T13:01:30.829Z,99.99
2019-04-22T13:02:31.228Z,99.99
2019-04-22T13:03:29.956Z,99.99
2019-04-22T13:04:30.191Z,99.99
2019-04-22T13:05:31.387Z,99.99
2019-04-22T13:06:30.200Z,99.99
2019-04-22T13:07:31.457Z,99.99
2019-04-22T13:08:30.051Z,99.99
2019-04-22T13:09:31.871Z,99.99
2019-04-22T13:10:41.523Z,99.99
2019-04-22T13:11:32.785Z,99.99
2019-04-22T13:12:31.082Z,99.99
2019-04-22T13:13:31.367Z,99.99
2019-04-22T13:14:30.701Z,99.99
2019-04-22T13:15:30.835Z,99.99
2019-04-22T13:16:31.266Z,99.99
2019-04-22T13:17:31.260Z,99.99
2019-04-22T13:18:38.137Z,99.99
2019-04-22T13:19:32.061Z,99.99
2019-04-22T13:20:30.544Z,99.99
2019-04-22T13:21:31.115Z,99.99
2019-04-22T13:22:30.712Z,99.99
2019-04-22T13:23:31.684Z,99.99
2019-04-22T13:24:30.394Z,99.99
2019-04-22T13:25:32.580Z,99.99
2019-04-22T13:26:31.849Z,99.99
2019-04-22T13:27:30.882Z,99.99
2019-04-22T13:28:31.497Z,99.99
2019-04-22T13:29:31.101Z,99.99
2019-04-22T13:30:30.606Z,99.99
2019-04-22T13:31:30.968Z,99.99
2019-04-22T13:32:31.349Z,99.99
2019-04-22T13:33:30.688Z,99.99
2019-04-22T13:34:39.695Z,99.99
2019-04-22T13:35:31.786Z,99.99
2019-04-22T13:36:31.750Z,99.99
2019-04-22T13:37:34.929Z,99.99
2019-04-22T13:38:33.164Z,99.99
2019-04-22T13:39:32.378Z,99.99
2019-04-22T13:40:30.852Z,99.99
2019-04-22T13:41:39.789Z,99.99
2019-04-22T13:42:31.533Z,99.99
2019-04-22T13:43:31.211Z,99.99
2019-04-22T13:44:31.459Z,99.99
2019-04-22T13:45:31.810Z,99.99
2019-04-22T13:46:32.167Z,99.99
2019-04-22T13:47:49.173Z,99.99
2019-04-22T13:48:52.785Z,99.99
2019-04-22T13:52:02.371Z,99.99
2019-04-22T13:54:29.629Z,99.99
2019-04-22T13:54:58.496Z,99.99
2019-04-22T13:56:10.567Z,99.99
2019-04-22T13:56:50.648Z,99.99
2019-04-22T13:57:47.581Z,99.99
2019-04-22T13:58:44.860Z,99.99
2019-04-22T13:59:40.362Z,99.99
2019-04-22T14:00:31.187Z,99.99
2019-04-22T14:01:32.568Z,99.99
2019-04-22T14:02:32.636Z,99.99
2019-04-22T14:03:33.786Z,99.99
2019-04-22T14:04:32.543Z,99.99
2019-04-22T14:05:31.279Z,99.99
2019-04-22T14:06:31.276Z,99.99
2019-04-22T14:07:32.716Z,99.99
2019-04-22T14:08:31.451Z,99.99
2019-04-22T14:09:33.657Z,99.99
2019-04-22T14:10:32.155Z,99.99
2019-04-22T14:11:37.625Z,99.99
2019-04-22T14:12:32.842Z,99.99
2019-04-22T14:13:32.321Z,99.99
2019-04-22T14:14:31.444Z,99.99